Main page
METAR-TAF:

METAR-TAF

Airports :

Damascus International Airport

Damascus, Syria

latitude: 33-25N, longitude: 036-31E, elevation: 608 m

Current weather observation

The report was made 21 minutes ago, at 04:00 UTC
Wind 6 kt from the Southwest
Temperature 18°C
Humidity 83%
Pressure 1015 hPa
Visibility: 5000 m
mist

METAR: OSDI 170400Z 22006KT 5000 BR 18/15 Q1015

Time: 07:21 (04:21 UTC)

Forecast

Forecast valid from 17 at 00 UTC to 18 at 06 UTC
Wind 12 kt from the South/Southwest
Visibility: 8000 m
Few clouds at a height of 3000 ft
Scattered clouds at a height of 10000 ft
Probability 30% :
Temporary
from 17 at 00 UTC to 17 at 12 UTC
Wind 10 kt from the Southwest with gusts up to 20 kt
Visibility: 6000 m
Few clouds at a height of 2500 ft
Broken clouds at a height of 3000 ft
Overcast at a height of 10000 ft
rain showers

TAF: OSDI 1700/1806 21012KT 8000 FEW030 SCT100 PROB30 TEMPO 1700/1712 22010G20KT 6000 SHRA FEW025 CB BKN030 OVC100

Weather observations and forecasts of more than 4000 airports (METAR and TAF reports).

The available stations are represented by yellow and red dots on the map.

Hover mouse over dot to see the name of the station.

Then click to see weather observations and forecasts.

To change the map : click on the green buttons with a black cross to zoom in, on the green button with a dash to zoom out, or on the green arrows for adjacent maps.


METAR-TAF: